sensor_id;sensor_type;location;lat;lon;timestamp;pressure;altitude;pressure_sealevel;temperature;humidity
58243;BME280;50118;53.232;8.252;2024-01-30T00:01:34;102566.78;;;2.55;100.00
58243;BME280;50118;53.232;8.252;2024-01-30T00:03:59;102576.38;;;2.57;100.00
58243;BME280;50118;53.232;8.252;2024-01-30T00:06:24;102573.81;;;2.54;100.00
58243;BME280;50118;53.232;8.252;2024-01-30T00:08:50;102572.09;;;2.53;100.00
58243;BME280;50118;53.232;8.252;2024-01-30T00:11:16;102560.78;;;2.51;100.00
58243;BME280;50118;53.232;8.252;2024-01-30T00:13:41;102575.63;;;2.54;100.00
58243;BME280;50118;53.232;8.252;2024-01-30T00:16:07;102559.66;;;2.58;100.00
58243;BME280;50118;53.232;8.252;2024-01-30T00:18:34;102561.25;;;2.64;100.00
58243;BME280;50118;53.232;8.252;2024-01-30T00:20:59;102561.13;;;2.67;100.00
58243;BME280;50118;53.232;8.252;2024-01-30T00:23:24;102539.56;;;2.83;100.00
58243;BME280;50118;53.232;8.252;2024-01-30T00:25:50;102544.78;;;2.84;100.00
58243;BME280;50118;53.232;8.252;2024-01-30T00:28:16;102548.97;;;2.91;100.00
58243;BME280;50118;53.232;8.252;2024-01-30T00:30:41;102559.78;;;2.82;100.00
58243;BME280;50118;53.232;8.252;2024-01-30T00:33:07;102544.22;;;2.76;100.00
58243;BME280;50118;53.232;8.252;2024-01-30T00:35:33;102549.19;;;2.84;100.00
58243;BME280;50118;53.232;8.252;2024-01-30T00:37:58;102542.47;;;2.75;100.00
58243;BME280;50118;53.232;8.252;2024-01-30T00:40:24;102537.13;;;2.78;100.00
58243;BME280;50118;53.232;8.252;2024-01-30T00:42:49;102532.47;;;2.86;100.00
58243;BME280;50118;53.232;8.252;2024-01-30T00:45:15;102533.97;;;2.93;100.00
58243;BME280;50118;53.232;8.252;2024-01-30T00:47:41;102538.31;;;2.94;100.00
58243;BME280;50118;53.232;8.252;2024-01-30T00:50:07;102538.16;;;2.99;100.00
58243;BME280;50118;53.232;8.252;2024-01-30T00:52:33;102522.22;;;3.04;100.00
58243;BME280;50118;53.232;8.252;2024-01-30T00:55:02;102520.31;;;3.07;100.00
58243;BME280;50118;53.232;8.252;2024-01-30T00:57:28;102522.88;;;3.10;100.00
58243;BME280;50118;53.232;8.252;2024-01-30T00:59:53;102520.22;;;3.10;100.00
58243;BME280;50118;53.232;8.252;2024-01-30T01:02:18;102517.66;;;3.09;100.00
58243;BME280;50118;53.232;8.252;2024-01-30T01:04:44;102515.13;;;3.06;100.00
58243;BME280;50118;53.232;8.252;2024-01-30T01:07:10;102506.19;;;3.10;100.00
58243;BME280;50118;53.232;8.252;2024-01-30T01:09:36;102512.03;;;3.18;100.00
58243;BME280;50118;53.232;8.252;2024-01-30T01:12:02;102520.03;;;3.15;100.00
58243;BME280;50118;53.232;8.252;2024-01-30T01:14:28;102518.34;;;3.14;100.00
58243;BME280;50118;53.232;8.252;2024-01-30T01:16:53;102513.13;;;3.12;100.00
58243;BME280;50118;53.232;8.252;2024-01-30T01:19:19;102508.13;;;3.05;100.00
58243;BME280;50118;53.232;8.252;2024-01-30T01:21:44;102517.84;;;3.03;100.00
58243;BME280;50118;53.232;8.252;2024-01-30T01:24:09;102515.22;;;3.03;100.00
58243;BME280;50118;53.232;8.252;2024-01-30T01:26:35;102516.19;;;3.00;100.00
58243;BME280;50118;53.232;8.252;2024-01-30T01:29:00;102520.72;;;2.96;100.00
58243;BME280;50118;53.232;8.252;2024-01-30T01:31:26;102520.00;;;2.91;100.00
58243;BME280;50118;53.232;8.252;2024-01-30T01:33:54;102514.38;;;3.02;100.00
58243;BME280;50118;53.232;8.252;2024-01-30T01:36:20;102516.34;;;2.95;100.00
58243;BME280;50118;53.232;8.252;2024-01-30T01:38:45;102518.94;;;2.97;100.00
58243;BME280;50118;53.232;8.252;2024-01-30T01:41:11;102518.22;;;2.92;100.00
58243;BME280;50118;53.232;8.252;2024-01-30T01:43:36;102521.00;;;2.87;100.00
58243;BME280;50118;53.232;8.252;2024-01-30T01:46:04;102517.56;;;2.85;100.00
58243;BME280;50118;53.232;8.252;2024-01-30T01:48:30;102521.31;;;2.78;100.00
58243;BME280;50118;53.232;8.252;2024-01-30T01:50:55;102517.63;;;2.84;100.00
58243;BME280;50118;53.232;8.252;2024-01-30T01:53:21;102509.00;;;2.78;100.00
58243;BME280;50118;53.232;8.252;2024-01-30T01:55:47;102516.09;;;2.76;100.00
58243;BME280;50118;53.232;8.252;2024-01-30T01:58:13;102507.28;;;2.77;100.00
58243;BME280;50118;53.232;8.252;2024-01-30T02:00:40;102495.84;;;2.78;100.00
58243;BME280;50118;53.232;8.252;2024-01-30T02:03:09;102495.66;;;2.85;100.00
58243;BME280;50118;53.232;8.252;2024-01-30T02:05:35;102486.84;;;2.86;100.00
58243;BME280;50118;53.232;8.252;2024-01-30T02:08:01;102480.72;;;2.85;100.00
58243;BME280;50118;53.232;8.252;2024-01-30T02:10:26;102481.41;;;2.90;100.00
58243;BME280;50118;53.232;8.252;2024-01-30T02:12:52;102475.81;;;2.99;100.00
58243;BME280;50118;53.232;8.252;2024-01-30T02:15:18;102470.34;;;3.06;100.00
58243;BME280;50118;53.232;8.252;2024-01-30T02:17:43;102464.84;;;3.13;100.00
58243;BME280;50118;53.232;8.252;2024-01-30T02:20:09;102468.38;;;3.12;100.00
58243;BME280;50118;53.232;8.252;2024-01-30T02:22:36;102464.75;;;3.15;100.00
58243;BME280;50118;53.232;8.252;2024-01-30T02:25:02;102467.63;;;3.09;100.00
58243;BME280;50118;53.232;8.252;2024-01-30T02:27:28;102463.25;;;3.08;100.00
58243;BME280;50118;53.232;8.252;2024-01-30T02:29:53;102462.66;;;2.99;100.00
58243;BME280;50118;53.232;8.252;2024-01-30T02:32:19;102460.91;;;3.00;100.00
58243;BME280;50118;53.232;8.252;2024-01-30T02:34:44;102460.22;;;2.95;100.00
58243;BME280;50118;53.232;8.252;2024-01-30T02:37:10;102454.84;;;2.98;100.00
58243;BME280;50118;53.232;8.252;2024-01-30T02:39:35;102457.84;;;2.87;100.00
58243;BME280;50118;53.232;8.252;2024-01-30T02:42:00;102450.09;;;2.83;100.00
58243;BME280;50118;53.232;8.252;2024-01-30T02:44:26;102446.31;;;2.91;100.00
58243;BME280;50118;53.232;8.252;2024-01-30T02:46:51;102443.78;;;2.88;100.00
58243;BME280;50118;53.232;8.252;2024-01-30T02:49:19;102447.19;;;2.90;100.00
58243;BME280;50118;53.232;8.252;2024-01-30T02:51:44;102435.78;;;2.91;100.00
58243;BME280;50118;53.232;8.252;2024-01-30T02:54:10;102443.66;;;2.91;100.00
58243;BME280;50118;53.232;8.252;2024-01-30T02:56:35;102442.97;;;2.86;100.00
58243;BME280;50118;53.232;8.252;2024-01-30T02:59:01;102433.41;;;2.84;100.00
58243;BME280;50118;53.232;8.252;2024-01-30T03:01:26;102439.94;;;2.97;100.00
58243;BME280;50118;53.232;8.252;2024-01-30T03:03:51;102434.84;;;2.92;100.00
58243;BME280;50118;53.232;8.252;2024-01-30T03:06:17;102442.13;;;2.84;100.00
58243;BME280;50118;53.232;8.252;2024-01-30T03:08:43;102441.38;;;2.80;100.00
58243;BME280;50118;53.232;8.252;2024-01-30T03:11:08;102437.81;;;2.83;100.00
58243;BME280;50118;53.232;8.252;2024-01-30T03:13:34;102445.91;;;2.77;100.00
58243;BME280;50118;53.232;8.252;2024-01-30T03:15:59;102434.44;;;2.79;100.00
58243;BME280;50118;53.232;8.252;2024-01-30T03:18:24;102433.59;;;2.77;100.00
58243;BME280;50118;53.232;8.252;2024-01-30T03:20:50;102434.56;;;2.75;100.00
58243;BME280;50118;53.232;8.252;2024-01-30T03:23:15;102433.53;;;2.79;100.00
58243;BME280;50118;53.232;8.252;2024-01-30T03:25:41;102423.84;;;2.81;100.00
58243;BME280;50118;53.232;8.252;2024-01-30T03:28:06;102417.75;;;2.79;100.00
58243;BME280;50118;53.232;8.252;2024-01-30T03:30:31;102417.75;;;2.79;100.00
58243;BME280;50118;53.232;8.252;2024-01-30T03:32:57;102415.63;;;2.90;100.00
58243;BME280;50118;53.232;8.252;2024-01-30T03:35:22;102403.78;;;3.02;100.00
58243;BME280;50118;53.232;8.252;2024-01-30T03:37:48;102403.44;;;3.11;100.00
58243;BME280;50118;53.232;8.252;2024-01-30T03:40:13;102404.44;;;3.09;100.00
58243;BME280;50118;53.232;8.252;2024-01-30T03:42:39;102399.59;;;3.20;100.00
58243;BME280;50118;53.232;8.252;2024-01-30T03:45:05;102396.06;;;3.21;100.00
58243;BME280;50118;53.232;8.252;2024-01-30T03:47:30;102400.06;;;3.31;100.00
58243;BME280;50118;53.232;8.252;2024-01-30T03:49:56;102391.38;;;3.29;100.00
58243;BME280;50118;53.232;8.252;2024-01-30T03:52:21;102397.50;;;3.30;100.00
58243;BME280;50118;53.232;8.252;2024-01-30T03:54:46;102389.47;;;3.33;100.00
58243;BME280;50118;53.232;8.252;2024-01-30T03:57:12;102384.38;;;3.28;100.00
58243;BME280;50118;53.232;8.252;2024-01-30T03:59:37;102386.09;;;3.29;100.00
58243;BME280;50118;53.232;8.252;2024-01-30T04:02:03;102380.09;;;3.26;100.00
58243;BME280;50118;53.232;8.252;2024-01-30T04:04:29;102383.00;;;3.18;100.00
58243;BME280;50118;53.232;8.252;2024-01-30T04:06:54;102379.69;;;3.13;100.00
58243;BME280;50118;53.232;8.252;2024-01-30T04:09:20;102381.63;;;3.08;100.00
58243;BME280;50118;53.232;8.252;2024-01-30T04:11:45;102378.72;;;3.15;100.00
58243;BME280;50118;53.232;8.252;2024-01-30T04:14:11;102379.94;;;3.07;100.00
58243;BME280;50118;53.232;8.252;2024-01-30T04:16:36;102378.56;;;2.96;100.00
58243;BME280;50118;53.232;8.252;2024-01-30T04:19:02;102378.72;;;2.92;100.00
58243;BME280;50118;53.232;8.252;2024-01-30T04:21:27;102377.97;;;2.88;100.00
58243;BME280;50118;53.232;8.252;2024-01-30T04:23:53;102369.38;;;2.83;100.00
58243;BME280;50118;53.232;8.252;2024-01-30T04:26:18;102372.00;;;2.83;100.00
58243;BME280;50118;53.232;8.252;2024-01-30T04:28:47;102359.66;;;2.85;100.00
58243;BME280;50118;53.232;8.252;2024-01-30T04:31:12;102360.34;;;2.90;100.00
58243;BME280;50118;53.232;8.252;2024-01-30T04:33:37;102363.66;;;2.95;100.00
58243;BME280;50118;53.232;8.252;2024-01-30T04:36:07;102359.19;;;2.97;100.00
58243;BME280;50118;53.232;8.252;2024-01-30T04:38:34;102360.91;;;2.98;100.00
58243;BME280;50118;53.232;8.252;2024-01-30T04:40:59;102365.38;;;2.96;100.00
58243;BME280;50118;53.232;8.252;2024-01-30T04:43:25;102369.03;;;3.16;100.00
58243;BME280;50118;53.232;8.252;2024-01-30T04:45:51;102372.72;;;3.12;100.00
58243;BME280;50118;53.232;8.252;2024-01-30T04:48:16;102378.31;;;3.03;100.00
58243;BME280;50118;53.232;8.252;2024-01-30T04:50:42;102363.44;;;3.02;100.00
58243;BME280;50118;53.232;8.252;2024-01-30T04:53:07;102363.66;;;3.19;100.00
58243;BME280;50118;53.232;8.252;2024-01-30T04:55:33;102353.97;;;3.20;100.00
58243;BME280;50118;53.232;8.252;2024-01-30T04:57:58;102363.03;;;3.12;100.00
58243;BME280;50118;53.232;8.252;2024-01-30T05:00:23;102354.16;;;3.15;100.00
58243;BME280;50118;53.232;8.252;2024-01-30T05:02:49;102351.66;;;3.12;100.00
58243;BME280;50118;53.232;8.252;2024-01-30T05:05:14;102362.19;;;3.12;100.00
58243;BME280;50118;53.232;8.252;2024-01-30T05:07:41;102362.19;;;3.12;100.00
58243;BME280;50118;53.232;8.252;2024-01-30T05:10:07;102362.19;;;3.12;100.00
58243;BME280;50118;53.232;8.252;2024-01-30T05:12:33;102355.94;;;3.14;100.00
58243;BME280;50118;53.232;8.252;2024-01-30T05:14:59;102354.97;;;3.17;100.00
58243;BME280;50118;53.232;8.252;2024-01-30T05:17:24;102351.72;;;3.10;100.00
58243;BME280;50118;53.232;8.252;2024-01-30T05:19:49;102354.44;;;3.07;100.00
58243;BME280;50118;53.232;8.252;2024-01-30T05:22:15;102357.94;;;3.08;100.00
58243;BME280;50118;53.232;8.252;2024-01-30T05:24:43;102357.13;;;3.06;100.00
58243;BME280;50118;53.232;8.252;2024-01-30T05:27:08;102362.41;;;3.06;100.00
58243;BME280;50118;53.232;8.252;2024-01-30T05:29:33;102359.72;;;3.07;100.00
58243;BME280;50118;53.232;8.252;2024-01-30T05:31:59;102361.72;;;3.01;100.00
58243;BME280;50118;53.232;8.252;2024-01-30T05:34:24;102349.53;;;2.98;100.00
58243;BME280;50118;53.232;8.252;2024-01-30T05:36:50;102361.88;;;2.96;100.00
58243;BME280;50118;53.232;8.252;2024-01-30T05:39:15;102356.41;;;3.02;100.00
58243;BME280;50118;53.232;8.252;2024-01-30T05:41:41;102357.88;;;3.09;100.00
58243;BME280;50118;53.232;8.252;2024-01-30T05:44:06;102357.03;;;3.09;100.00
58243;BME280;50118;53.232;8.252;2024-01-30T05:46:33;102349.47;;;3.23;100.00
58243;BME280;50118;53.232;8.252;2024-01-30T05:48:58;102348.50;;;3.26;100.00
58243;BME280;50118;53.232;8.252;2024-01-30T05:51:24;102352.19;;;3.20;100.00
58243;BME280;50118;53.232;8.252;2024-01-30T05:53:49;102345.00;;;3.25;100.00
58243;BME280;50118;53.232;8.252;2024-01-30T05:56:15;102350.41;;;3.22;100.00
58243;BME280;50118;53.232;8.252;2024-01-30T05:58:40;102352.78;;;3.28;100.00
58243;BME280;50118;53.232;8.252;2024-01-30T06:01:08;102350.97;;;3.30;100.00
58243;BME280;50118;53.232;8.252;2024-01-30T06:03:35;102340.59;;;3.26;100.00
58243;BME280;50118;53.232;8.252;2024-01-30T06:06:00;102350.97;;;3.30;100.00
58243;BME280;50118;53.232;8.252;2024-01-30T06:08:26;102345.69;;;3.30;100.00
58243;BME280;50118;53.232;8.252;2024-01-30T06:10:51;102343.28;;;3.24;100.00
58243;BME280;50118;53.232;8.252;2024-01-30T06:13:17;102345.81;;;3.27;100.00
58243;BME280;50118;53.232;8.252;2024-01-30T06:15:42;102345.25;;;3.19;100.00
58243;BME280;50118;53.232;8.252;2024-01-30T06:18:08;102344.28;;;3.20;100.00
58243;BME280;50118;53.232;8.252;2024-01-30T06:20:34;102347.28;;;3.11;100.00
58243;BME280;50118;53.232;8.252;2024-01-30T06:22:59;102343.69;;;3.13;100.00
58243;BME280;50118;53.232;8.252;2024-01-30T06:25:25;102337.34;;;3.19;100.00
58243;BME280;50118;53.232;8.252;2024-01-30T06:27:50;102324.16;;;3.19;100.00
58243;BME280;50118;53.232;8.252;2024-01-30T06:30:16;102314.38;;;3.23;100.00
58243;BME280;50118;53.232;8.252;2024-01-30T06:32:41;102308.50;;;3.38;100.00
58243;BME280;50118;53.232;8.252;2024-01-30T06:35:07;102320.09;;;3.56;100.00
58243;BME280;50118;53.232;8.252;2024-01-30T06:37:33;102324.88;;;3.68;100.00
58243;BME280;50118;53.232;8.252;2024-01-30T06:39:58;102321.19;;;3.72;100.00
58243;BME280;50118;53.232;8.252;2024-01-30T06:42:24;102320.84;;;3.82;100.00
58243;BME280;50118;53.232;8.252;2024-01-30T06:44:49;102315.63;;;3.80;100.00
58243;BME280;50118;53.232;8.252;2024-01-30T06:47:14;102322.66;;;3.80;100.00
58243;BME280;50118;53.232;8.252;2024-01-30T06:49:40;102328.63;;;3.85;100.00
58243;BME280;50118;53.232;8.252;2024-01-30T06:52:07;102318.75;;;3.90;100.00
58243;BME280;50118;53.232;8.252;2024-01-30T06:54:33;102321.16;;;3.95;100.00
58243;BME280;50118;53.232;8.252;2024-01-30T06:56:59;102319.88;;;3.83;100.00
58243;BME280;50118;53.232;8.252;2024-01-30T06:59:24;102317.00;;;3.89;100.00
58243;BME280;50118;53.232;8.252;2024-01-30T07:01:50;102319.88;;;3.83;100.00
58243;BME280;50118;53.232;8.252;2024-01-30T07:04:15;102312.88;;;3.83;100.00
58243;BME280;50118;53.232;8.252;2024-01-30T07:06:41;102323.69;;;3.98;100.00
58243;BME280;50118;53.232;8.252;2024-01-30T07:09:07;102328.91;;;3.99;100.00
58243;BME280;50118;53.232;8.252;2024-01-30T07:11:32;102324.16;;;4.07;100.00
58243;BME280;50118;53.232;8.252;2024-01-30T07:13:57;102315.97;;;4.14;100.00
58243;BME280;50118;53.232;8.252;2024-01-30T07:16:23;102312.03;;;4.24;100.00
58243;BME280;50118;53.232;8.252;2024-01-30T07:18:49;102311.91;;;4.27;100.00
58243;BME280;50118;53.232;8.252;2024-01-30T07:21:15;102318.63;;;4.34;100.00
58243;BME280;50118;53.232;8.252;2024-01-30T07:23:40;102309.78;;;4.35;100.00
58243;BME280;50118;53.232;8.252;2024-01-30T07:26:07;102314.69;;;4.44;100.00
58243;BME280;50118;53.232;8.252;2024-01-30T07:28:34;102308.72;;;4.60;100.00
58243;BME280;50118;53.232;8.252;2024-01-30T07:31:00;102316.00;;;4.55;100.00
58243;BME280;50118;53.232;8.252;2024-01-30T07:33:26;102317.31;;;4.65;100.00
58243;BME280;50118;53.232;8.252;2024-01-30T07:35:52;102324.03;;;4.72;100.00
58243;BME280;50118;53.232;8.252;2024-01-30T07:38:18;102332.59;;;4.77;100.00
58243;BME280;50118;53.232;8.252;2024-01-30T07:40:43;102340.56;;;4.76;100.00
58243;BME280;50118;53.232;8.252;2024-01-30T07:43:09;102340.31;;;4.82;100.00
58243;BME280;50118;53.232;8.252;2024-01-30T07:45:34;102338.53;;;4.82;100.00
58243;BME280;50118;53.232;8.252;2024-01-30T07:48:00;102337.75;;;4.80;100.00
58243;BME280;50118;53.232;8.252;2024-01-30T07:50:26;102332.16;;;4.86;100.00
58243;BME280;50118;53.232;8.252;2024-01-30T07:52:52;102326.81;;;4.88;100.00
58243;BME280;50118;53.232;8.252;2024-01-30T07:55:20;102334.28;;;4.99;100.00
58243;BME280;50118;53.232;8.252;2024-01-30T07:57:51;102335.19;;;4.98;100.00
58243;BME280;50118;53.232;8.252;2024-01-30T08:00:18;102342.41;;;5.13;100.00
58243;BME280;50118;53.232;8.252;2024-01-30T08:02:43;102342.91;;;5.21;100.00
58243;BME280;50118;53.232;8.252;2024-01-30T08:05:08;102346.19;;;5.27;100.00
58243;BME280;50118;53.232;8.252;2024-01-30T08:07:36;102345.50;;;5.23;100.00
58243;BME280;50118;53.232;8.252;2024-01-30T08:10:02;102339.97;;;5.28;100.00
58243;BME280;50118;53.232;8.252;2024-01-30T08:12:27;102342.19;;;5.37;100.00
58243;BME280;50118;53.232;8.252;2024-01-30T08:14:53;102331.63;;;5.37;100.00
58243;BME280;50118;53.232;8.252;2024-01-30T08:17:19;102327.13;;;5.39;100.00
58243;BME280;50118;53.232;8.252;2024-01-30T08:19:44;102338.31;;;5.44;100.00
58243;BME280;50118;53.232;8.252;2024-01-30T08:22:09;102320.59;;;5.46;100.00
58243;BME280;50118;53.232;8.252;2024-01-30T08:24:35;102310.38;;;5.57;100.00
58243;BME280;50118;53.232;8.252;2024-01-30T08:27:00;102322.38;;;5.65;100.00
58243;BME280;50118;53.232;8.252;2024-01-30T08:29:27;102312.56;;;5.67;100.00
58243;BME280;50118;53.232;8.252;2024-01-30T08:31:53;102311.66;;;5.68;100.00
58243;BME280;50118;53.232;8.252;2024-01-30T08:34:20;102311.56;;;5.69;100.00
58243;BME280;50118;53.232;8.252;2024-01-30T08:36:46;102326.28;;;5.75;100.00
58243;BME280;50118;53.232;8.252;2024-01-30T08:39:11;102319.81;;;5.80;100.00
58243;BME280;50118;53.232;8.252;2024-01-30T08:41:37;102304.22;;;5.93;100.00
58243;BME280;50118;53.232;8.252;2024-01-30T08:44:02;102315.38;;;6.00;100.00
58243;BME280;50118;53.232;8.252;2024-01-30T08:46:29;102303.00;;;6.01;100.00
58243;BME280;50118;53.232;8.252;2024-01-30T08:48:55;102314.06;;;6.09;100.00
58243;BME280;50118;53.232;8.252;2024-01-30T08:51:21;102304.09;;;6.14;100.00
58243;BME280;50118;53.232;8.252;2024-01-30T08:53:47;102315.31;;;6.19;100.00
58243;BME280;50118;53.232;8.252;2024-01-30T08:56:12;102317.78;;;6.22;100.00
58243;BME280;50118;53.232;8.252;2024-01-30T08:58:38;102307.81;;;6.27;100.00
58243;BME280;50118;53.232;8.252;2024-01-30T09:01:05;102318.81;;;6.37;100.00
58243;BME280;50118;53.232;8.252;2024-01-30T09:03:31;102306.19;;;6.42;100.00
58243;BME280;50118;53.232;8.252;2024-01-30T09:05:56;102296.66;;;6.56;100.00
58243;BME280;50118;53.232;8.252;2024-01-30T09:08:22;102288.16;;;6.66;100.00
58243;BME280;50118;53.232;8.252;2024-01-30T09:10:47;102293.97;;;6.73;100.00
58243;BME280;50118;53.232;8.252;2024-01-30T09:13:15;102307.75;;;6.80;100.00
58243;BME280;50118;53.232;8.252;2024-01-30T09:15:41;102310.94;;;6.86;100.00
58243;BME280;50118;53.232;8.252;2024-01-30T09:18:07;102319.41;;;6.93;100.00
58243;BME280;50118;53.232;8.252;2024-01-30T09:20:33;102329.88;;;6.95;100.00
58243;BME280;50118;53.232;8.252;2024-01-30T09:22:58;102331.97;;;7.05;100.00
58243;BME280;50118;53.232;8.252;2024-01-30T09:25:24;102336.06;;;7.11;100.00
58243;BME280;50118;53.232;8.252;2024-01-30T09:27:49;102336.84;;;7.13;100.00
58243;BME280;50118;53.232;8.252;2024-01-30T09:30:15;102339.09;;;7.21;100.00
58243;BME280;50118;53.232;8.252;2024-01-30T09:32:40;102337.28;;;7.21;100.00
58243;BME280;50118;53.232;8.252;2024-01-30T09:35:06;102343.47;;;7.38;100.00
58243;BME280;50118;53.232;8.252;2024-01-30T09:37:32;102349.59;;;7.38;100.00
58243;BME280;50118;53.232;8.252;2024-01-30T09:39:57;102342.09;;;7.46;100.00
58243;BME280;50118;53.232;8.252;2024-01-30T09:42:36;102343.28;;;7.41;100.00
58243;BME280;50118;53.232;8.252;2024-01-30T09:45:02;102345.25;;;7.37;100.00
58243;BME280;50118;53.232;8.252;2024-01-30T09:47:33;102345.94;;;7.57;100.00
58243;BME280;50118;53.232;8.252;2024-01-30T09:50:02;102347.91;;;7.53;100.00
58243;BME280;50118;53.232;8.252;2024-01-30T09:52:28;102345.75;;;7.60;100.00
58243;BME280;50118;53.232;8.252;2024-01-30T09:54:55;102348.25;;;7.63;100.00
58243;BME280;50118;53.232;8.252;2024-01-30T09:57:20;102365.09;;;7.62;100.00
58243;BME280;50118;53.232;8.252;2024-01-30T09:59:46;102361.75;;;7.74;100.00
58243;BME280;50118;53.232;8.252;2024-01-30T10:02:12;102360.03;;;7.73;100.00
58243;BME280;50118;53.232;8.252;2024-01-30T10:04:37;102359.09;;;7.74;100.00
58243;BME280;50118;53.232;8.252;2024-01-30T10:07:03;102364.31;;;7.92;100.00
58243;BME280;50118;53.232;8.252;2024-01-30T10:09:31;102352.22;;;8.02;100.00
58243;BME280;50118;53.232;8.252;2024-01-30T10:11:59;102358.78;;;7.95;100.00
58243;BME280;50118;53.232;8.252;2024-01-30T10:14:24;102348.75;;;8.16;100.00
58243;BME280;50118;53.232;8.252;2024-01-30T10:16:50;102349.59;;;8.16;100.00
58243;BME280;50118;53.232;8.252;2024-01-30T10:19:16;102344.13;;;8.34;100.00
58243;BME280;50118;53.232;8.252;2024-01-30T10:21:41;102349.09;;;8.40;100.00
58243;BME280;50118;53.232;8.252;2024-01-30T10:24:07;102350.13;;;8.37;100.00
58243;BME280;50118;53.232;8.252;2024-01-30T10:26:32;102344.22;;;8.48;100.00
58243;BME280;50118;53.232;8.252;2024-01-30T10:28:59;102343.06;;;8.52;100.00
58243;BME280;50118;53.232;8.252;2024-01-30T10:31:25;102330.47;;;8.70;100.00
58243;BME280;50118;53.232;8.252;2024-01-30T10:33:51;102344.44;;;8.74;100.00
58243;BME280;50118;53.232;8.252;2024-01-30T10:36:17;102328.97;;;8.81;100.00
58243;BME280;50118;53.232;8.252;2024-01-30T10:38:43;102335.88;;;8.83;100.00
58243;BME280;50118;53.232;8.252;2024-01-30T10:41:12;102347.38;;;8.84;100.00
58243;BME280;50118;53.232;8.252;2024-01-30T10:43:41;102337.41;;;8.73;100.00
58243;BME280;50118;53.232;8.252;2024-01-30T10:46:20;102339.09;;;8.88;100.00
58243;BME280;50118;53.232;8.252;2024-01-30T10:48:54;102338.63;;;8.82;100.00
58243;BME280;50118;53.232;8.252;2024-01-30T10:51:23;102335.50;;;8.75;100.00
58243;BME280;50118;53.232;8.252;2024-01-30T10:53:50;102336.94;;;8.95;100.00
58243;BME280;50118;53.232;8.252;2024-01-30T10:56:16;102327.25;;;9.08;100.00
58243;BME280;50118;53.232;8.252;2024-01-30T10:58:41;102327.88;;;9.26;100.00
58243;BME280;50118;53.232;8.252;2024-01-30T11:01:07;102329.75;;;9.39;100.00
58243;BME280;50118;53.232;8.252;2024-01-30T11:03:34;102326.50;;;9.48;100.00
58243;BME280;50118;53.232;8.252;2024-01-30T11:06:02;102329.69;;;9.53;100.00
58243;BME280;50118;53.232;8.252;2024-01-30T11:08:28;102333.56;;;9.62;100.00
58243;BME280;50118;53.232;8.252;2024-01-30T11:10:57;102325.19;;;9.41;100.00
58243;BME280;50118;53.232;8.252;2024-01-30T11:13:29;102333.25;;;9.53;100.00
58243;BME280;50118;53.232;8.252;2024-01-30T11:15:55;102336.56;;;9.57;100.00
58243;BME280;50118;53.232;8.252;2024-01-30T11:18:29;102323.16;;;9.59;100.00
58243;BME280;50118;53.232;8.252;2024-01-30T11:20:58;102331.22;;;9.57;100.00
58243;BME280;50118;53.232;8.252;2024-01-30T11:23:26;102319.13;;;9.66;100.00
58243;BME280;50118;53.232;8.252;2024-01-30T11:25:56;102327.84;;;9.68;100.00
58243;BME280;50118;53.232;8.252;2024-01-30T11:28:22;102326.94;;;9.54;100.00
58243;BME280;50118;53.232;8.252;2024-01-30T11:30:48;102329.50;;;9.56;100.00
58243;BME280;50118;53.232;8.252;2024-01-30T11:33:27;102334.94;;;9.82;100.00
58243;BME280;50118;53.232;8.252;2024-01-30T11:35:57;102323.94;;;9.73;100.00
58243;BME280;50118;53.232;8.252;2024-01-30T11:38:23;102312.63;;;9.97;100.00
58243;BME280;50118;53.232;8.252;2024-01-30T11:40:51;102322.22;;;10.13;100.00
58243;BME280;50118;53.232;8.252;2024-01-30T11:43:17;102324.88;;;10.00;100.00
58243;BME280;50118;53.232;8.252;2024-01-30T11:45:44;102321.16;;;10.02;100.00
58243;BME280;50118;53.232;8.252;2024-01-30T11:48:11;102321.16;;;10.02;100.00
58243;BME280;50118;53.232;8.252;2024-01-30T11:50:37;102320.59;;;9.97;100.00
58243;BME280;50118;53.232;8.252;2024-01-30T11:53:04;102322.88;;;10.03;100.00
58243;BME280;50118;53.232;8.252;2024-01-30T11:55:30;102316.25;;;9.96;100.00
58243;BME280;50118;53.232;8.252;2024-01-30T11:58:00;102322.88;;;10.03;100.00
58243;BME280;50118;53.232;8.252;2024-01-30T12:00:25;102322.88;;;10.16;100.00
58243;BME280;50118;53.232;8.252;2024-01-30T12:02:53;102322.47;;;10.22;100.00
58243;BME280;50118;53.232;8.252;2024-01-30T12:05:25;102325.88;;;10.24;100.00
58243;BME280;50118;53.232;8.252;2024-01-30T12:07:51;102322.53;;;10.35;100.00
58243;BME280;50118;53.232;8.252;2024-01-30T12:10:17;102323.47;;;10.34;100.00
58243;BME280;50118;53.232;8.252;2024-01-30T12:12:45;102329.94;;;10.30;100.00
58243;BME280;50118;53.232;8.252;2024-01-30T12:15:11;102320.06;;;10.32;100.00
58243;BME280;50118;53.232;8.252;2024-01-30T12:17:37;102316.34;;;10.48;100.00
58243;BME280;50118;53.232;8.252;2024-01-30T12:20:11;102312.63;;;10.37;100.00
58243;BME280;50118;53.232;8.252;2024-01-30T12:22:38;102314.06;;;10.28;100.00
58243;BME280;50118;53.232;8.252;2024-01-30T12:25:14;102312.88;;;10.20;100.00
58243;BME280;50118;53.232;8.252;2024-01-30T12:27:42;102305.84;;;10.19;100.00
58243;BME280;50118;53.232;8.252;2024-01-30T12:30:09;102310.97;;;10.22;100.00
58243;BME280;50118;53.232;8.252;2024-01-30T12:32:36;102304.13;;;10.18;100.00
58243;BME280;50118;53.232;8.252;2024-01-30T12:35:02;102310.09;;;10.08;100.00
58243;BME280;50118;53.232;8.252;2024-01-30T12:37:27;102306.47;;;10.09;100.00
58243;BME280;50118;53.232;8.252;2024-01-30T12:39:54;102303.25;;;10.04;100.00
58243;BME280;50118;53.232;8.252;2024-01-30T12:42:20;102302.22;;;10.07;100.00
58243;BME280;50118;53.232;8.252;2024-01-30T12:44:49;102293.69;;;10.15;100.00